sensor_id;sensor_type;location;lat;lon;timestamp;P1;durP1;ratioP1;P2;durP2;ratioP2
3943;SDS011;1986;52.546;13.428;2023-04-24T00:01:37;14.03;;;13.53;;
3943;SDS011;1986;52.546;13.428;2023-04-24T00:04:04;13.80;;;13.30;;
3943;SDS011;1986;52.546;13.428;2023-04-24T00:06:33;12.00;;;11.70;;
3943;SDS011;1986;52.546;13.428;2023-04-24T00:09:02;12.20;;;11.80;;
3943;SDS011;1986;52.546;13.428;2023-04-24T00:11:30;12.10;;;11.80;;
3943;SDS011;1986;52.546;13.428;2023-04-24T00:13:57;11.93;;;11.63;;
3943;SDS011;1986;52.546;13.428;2023-04-24T00:16:23;12.40;;;12.00;;
3943;SDS011;1986;52.546;13.428;2023-04-24T00:18:50;12.80;;;12.40;;
3943;SDS011;1986;52.546;13.428;2023-04-24T00:21:18;13.33;;;12.93;;
3943;SDS011;1986;52.546;13.428;2023-04-24T00:23:46;13.73;;;13.23;;
3943;SDS011;1986;52.546;13.428;2023-04-24T00:26:14;12.83;;;12.43;;
3943;SDS011;1986;52.546;13.428;2023-04-24T00:28:41;12.10;;;11.80;;
3943;SDS011;1986;52.546;13.428;2023-04-24T00:31:07;13.83;;;13.33;;
3943;SDS011;1986;52.546;13.428;2023-04-24T00:33:34;11.03;;;10.73;;
3943;SDS011;1986;52.546;13.428;2023-04-24T00:36:02;10.90;;;10.60;;
3943;SDS011;1986;52.546;13.428;2023-04-24T00:38:29;13.00;;;12.20;;
3943;SDS011;1986;52.546;13.428;2023-04-24T00:40:57;10.80;;;10.50;;
3943;SDS011;1986;52.546;13.428;2023-04-24T00:43:24;11.00;;;10.70;;
3943;SDS011;1986;52.546;13.428;2023-04-24T00:45:51;11.60;;;11.30;;
3943;SDS011;1986;52.546;13.428;2023-04-24T00:48:18;12.40;;;12.00;;
3943;SDS011;1986;52.546;13.428;2023-04-24T00:50:46;11.30;;;11.00;;
3943;SDS011;1986;52.546;13.428;2023-04-24T00:53:13;11.33;;;11.03;;
3943;SDS011;1986;52.546;13.428;2023-04-24T00:55:40;11.10;;;10.80;;
3943;SDS011;1986;52.546;13.428;2023-04-24T00:58:08;10.43;;;9.93;;
3943;SDS011;1986;52.546;13.428;2023-04-24T01:00:36;9.60;;;9.40;;
3943;SDS011;1986;52.546;13.428;2023-04-24T01:03:03;9.40;;;9.20;;
3943;SDS011;1986;52.546;13.428;2023-04-24T01:05:31;9.67;;;9.37;;
3943;SDS011;1986;52.546;13.428;2023-04-24T01:07:58;11.40;;;10.90;;
3943;SDS011;1986;52.546;13.428;2023-04-24T01:10:29;10.97;;;10.67;;
3943;SDS011;1986;52.546;13.428;2023-04-24T01:12:57;10.10;;;9.90;;
3943;SDS011;1986;52.546;13.428;2023-04-24T01:15:26;9.83;;;9.63;;
3943;SDS011;1986;52.546;13.428;2023-04-24T01:17:53;11.73;;;11.23;;
3943;SDS011;1986;52.546;13.428;2023-04-24T01:20:20;10.20;;;10.00;;
3943;SDS011;1986;52.546;13.428;2023-04-24T01:22:48;10.97;;;10.57;;
3943;SDS011;1986;52.546;13.428;2023-04-24T01:25:15;10.10;;;9.80;;
3943;SDS011;1986;52.546;13.428;2023-04-24T01:27:42;9.10;;;8.90;;
3943;SDS011;1986;52.546;13.428;2023-04-24T01:30:10;9.57;;;9.33;;
3943;SDS011;1986;52.546;13.428;2023-04-24T01:32:38;9.47;;;9.27;;
3943;SDS011;1986;52.546;13.428;2023-04-24T01:35:07;9.90;;;9.60;;
3943;SDS011;1986;52.546;13.428;2023-04-24T01:37:34;9.33;;;9.13;;
3943;SDS011;1986;52.546;13.428;2023-04-24T01:40:03;9.20;;;9.00;;
3943;SDS011;1986;52.546;13.428;2023-04-24T01:42:31;9.50;;;9.30;;
3943;SDS011;1986;52.546;13.428;2023-04-24T01:44:59;9.60;;;9.40;;
3943;SDS011;1986;52.546;13.428;2023-04-24T01:47:26;10.63;;;10.23;;
3943;SDS011;1986;52.546;13.428;2023-04-24T01:49:54;9.23;;;8.83;;
3943;SDS011;1986;52.546;13.428;2023-04-24T01:52:21;9.47;;;9.07;;
3943;SDS011;1986;52.546;13.428;2023-04-24T01:54:48;8.00;;;7.90;;
3943;SDS011;1986;52.546;13.428;2023-04-24T01:57:16;10.53;;;10.00;;
3943;SDS011;1986;52.546;13.428;2023-04-24T01:59:43;8.80;;;8.60;;
3943;SDS011;1986;52.546;13.428;2023-04-24T02:02:10;8.00;;;7.90;;
3943;SDS011;1986;52.546;13.428;2023-04-24T02:04:37;8.90;;;8.70;;
3943;SDS011;1986;52.546;13.428;2023-04-24T02:07:05;10.30;;;9.80;;
3943;SDS011;1986;52.546;13.428;2023-04-24T02:09:32;9.50;;;9.20;;
3943;SDS011;1986;52.546;13.428;2023-04-24T02:11:59;8.10;;;8.00;;
3943;SDS011;1986;52.546;13.428;2023-04-24T02:14:27;11.43;;;10.67;;
3943;SDS011;1986;52.546;13.428;2023-04-24T02:16:54;7.40;;;7.30;;
3943;SDS011;1986;52.546;13.428;2023-04-24T02:19:21;8.70;;;8.50;;
3943;SDS011;1986;52.546;13.428;2023-04-24T02:21:48;8.20;;;8.10;;
3943;SDS011;1986;52.546;13.428;2023-04-24T02:24:15;8.57;;;8.27;;
3943;SDS011;1986;52.546;13.428;2023-04-24T02:26:42;10.17;;;9.57;;
3943;SDS011;1986;52.546;13.428;2023-04-24T02:29:09;7.43;;;7.33;;
3943;SDS011;1986;52.546;13.428;2023-04-24T02:31:37;8.53;;;8.23;;
3943;SDS011;1986;52.546;13.428;2023-04-24T02:34:04;7.07;;;6.97;;
3943;SDS011;1986;52.546;13.428;2023-04-24T02:36:31;7.80;;;7.60;;
3943;SDS011;1986;52.546;13.428;2023-04-24T02:38:58;7.50;;;7.40;;
3943;SDS011;1986;52.546;13.428;2023-04-24T02:41:26;8.73;;;8.50;;
3943;SDS011;1986;52.546;13.428;2023-04-24T02:43:56;7.23;;;6.93;;
3943;SDS011;1986;52.546;13.428;2023-04-24T02:46:23;6.80;;;6.70;;
3943;SDS011;1986;52.546;13.428;2023-04-24T02:48:52;6.90;;;6.80;;
3943;SDS011;1986;52.546;13.428;2023-04-24T02:51:19;7.10;;;7.00;;
3943;SDS011;1986;52.546;13.428;2023-04-24T02:53:45;7.20;;;7.10;;
3943;SDS011;1986;52.546;13.428;2023-04-24T02:56:12;6.90;;;6.80;;
3943;SDS011;1986;52.546;13.428;2023-04-24T02:58:39;9.10;;;8.60;;
3943;SDS011;1986;52.546;13.428;2023-04-24T03:01:07;9.07;;;8.83;;
3943;SDS011;1986;52.546;13.428;2023-04-24T03:03:35;8.40;;;7.90;;
3943;SDS011;1986;52.546;13.428;2023-04-24T03:06:03;7.70;;;7.40;;
3943;SDS011;1986;52.546;13.428;2023-04-24T03:08:31;7.43;;;6.93;;
3943;SDS011;1986;52.546;13.428;2023-04-24T03:10:58;5.60;;;5.50;;
3943;SDS011;1986;52.546;13.428;2023-04-24T03:13:24;5.73;;;5.63;;
3943;SDS011;1986;52.546;13.428;2023-04-24T03:15:51;5.60;;;5.40;;
3943;SDS011;1986;52.546;13.428;2023-04-24T03:18:19;6.87;;;6.77;;
3943;SDS011;1986;52.546;13.428;2023-04-24T03:20:46;7.77;;;7.50;;
3943;SDS011;1986;52.546;13.428;2023-04-24T03:23:14;7.20;;;7.00;;
3943;SDS011;1986;52.546;13.428;2023-04-24T03:25:41;6.97;;;6.87;;
3943;SDS011;1986;52.546;13.428;2023-04-24T03:28:08;8.53;;;8.07;;
3943;SDS011;1986;52.546;13.428;2023-04-24T03:30:38;9.60;;;8.93;;
3943;SDS011;1986;52.546;13.428;2023-04-24T03:33:05;7.80;;;7.70;;
3943;SDS011;1986;52.546;13.428;2023-04-24T03:35:32;9.87;;;9.33;;
3943;SDS011;1986;52.546;13.428;2023-04-24T03:38:01;6.90;;;6.80;;
3943;SDS011;1986;52.546;13.428;2023-04-24T03:40:31;7.80;;;7.70;;
3943;SDS011;1986;52.546;13.428;2023-04-24T03:42:59;7.60;;;7.50;;
3943;SDS011;1986;52.546;13.428;2023-04-24T03:45:26;8.10;;;8.00;;
3943;SDS011;1986;52.546;13.428;2023-04-24T03:47:52;9.00;;;8.80;;
3943;SDS011;1986;52.546;13.428;2023-04-24T03:50:19;9.63;;;9.43;;
3943;SDS011;1986;52.546;13.428;2023-04-24T03:52:46;10.33;;;10.03;;
3943;SDS011;1986;52.546;13.428;2023-04-24T03:55:13;9.90;;;9.70;;
3943;SDS011;1986;52.546;13.428;2023-04-24T03:57:41;9.73;;;9.53;;
3943;SDS011;1986;52.546;13.428;2023-04-24T04:00:09;10.90;;;10.60;;
3943;SDS011;1986;52.546;13.428;2023-04-24T04:02:37;10.83;;;10.53;;
3943;SDS011;1986;52.546;13.428;2023-04-24T04:05:04;11.37;;;11.07;;
3943;SDS011;1986;52.546;13.428;2023-04-24T04:07:31;12.00;;;11.60;;
3943;SDS011;1986;52.546;13.428;2023-04-24T04:09:58;11.00;;;10.70;;
3943;SDS011;1986;52.546;13.428;2023-04-24T04:12:25;11.40;;;11.10;;
3943;SDS011;1986;52.546;13.428;2023-04-24T04:14:53;10.57;;;10.27;;
3943;SDS011;1986;52.546;13.428;2023-04-24T04:17:20;10.93;;;10.63;;
3943;SDS011;1986;52.546;13.428;2023-04-24T04:19:47;10.57;;;10.27;;
3943;SDS011;1986;52.546;13.428;2023-04-24T04:22:13;12.40;;;11.90;;
3943;SDS011;1986;52.546;13.428;2023-04-24T04:24:40;10.80;;;10.50;;
3943;SDS011;1986;52.546;13.428;2023-04-24T04:27:08;11.50;;;10.97;;
3943;SDS011;1986;52.546;13.428;2023-04-24T04:29:36;12.10;;;11.80;;
3943;SDS011;1986;52.546;13.428;2023-04-24T04:32:04;11.40;;;11.10;;
3943;SDS011;1986;52.546;13.428;2023-04-24T04:34:32;11.60;;;11.30;;
3943;SDS011;1986;52.546;13.428;2023-04-24T04:36:59;12.47;;;12.07;;
3943;SDS011;1986;52.546;13.428;2023-04-24T04:39:26;11.47;;;11.07;;
3943;SDS011;1986;52.546;13.428;2023-04-24T04:41:54;11.93;;;11.40;;
3943;SDS011;1986;52.546;13.428;2023-04-24T04:44:21;12.13;;;11.80;;
3943;SDS011;1986;52.546;13.428;2023-04-24T04:46:48;11.63;;;11.33;;
3943;SDS011;1986;52.546;13.428;2023-04-24T04:49:19;11.80;;;11.50;;
3943;SDS011;1986;52.546;13.428;2023-04-24T04:51:46;11.93;;;11.57;;
3943;SDS011;1986;52.546;13.428;2023-04-24T04:54:13;11.93;;;11.60;;
3943;SDS011;1986;52.546;13.428;2023-04-24T04:56:40;11.60;;;11.30;;
3943;SDS011;1986;52.546;13.428;2023-04-24T04:59:07;12.87;;;12.37;;
3943;SDS011;1986;52.546;13.428;2023-04-24T05:01:34;12.33;;;12.00;;
3943;SDS011;1986;52.546;13.428;2023-04-24T05:04:02;11.60;;;11.30;;
3943;SDS011;1986;52.546;13.428;2023-04-24T05:06:30;12.70;;;12.10;;
3943;SDS011;1986;52.546;13.428;2023-04-24T05:08:57;12.17;;;11.77;;
3943;SDS011;1986;52.546;13.428;2023-04-24T05:11:24;12.17;;;11.80;;
3943;SDS011;1986;52.546;13.428;2023-04-24T05:13:51;12.03;;;11.73;;
3943;SDS011;1986;52.546;13.428;2023-04-24T05:16:18;12.60;;;12.20;;
3943;SDS011;1986;52.546;13.428;2023-04-24T05:18:45;12.97;;;12.57;;
3943;SDS011;1986;52.546;13.428;2023-04-24T05:21:12;13.20;;;12.80;;
3943;SDS011;1986;52.546;13.428;2023-04-24T05:23:40;13.80;;;13.30;;
3943;SDS011;1986;52.546;13.428;2023-04-24T05:26:07;13.20;;;12.80;;
3943;SDS011;1986;52.546;13.428;2023-04-24T05:28:34;13.40;;;13.00;;
3943;SDS011;1986;52.546;13.428;2023-04-24T05:31:01;14.30;;;13.80;;
3943;SDS011;1986;52.546;13.428;2023-04-24T05:33:29;15.60;;;15.00;;
3943;SDS011;1986;52.546;13.428;2023-04-24T05:35:56;15.77;;;14.83;;
3943;SDS011;1986;52.546;13.428;2023-04-24T05:38:23;14.50;;;14.00;;
3943;SDS011;1986;52.546;13.428;2023-04-24T05:40:51;17.80;;;16.80;;
3943;SDS011;1986;52.546;13.428;2023-04-24T05:43:18;14.73;;;14.23;;
3943;SDS011;1986;52.546;13.428;2023-04-24T05:45:45;14.97;;;14.40;;
3943;SDS011;1986;52.546;13.428;2023-04-24T05:48:12;17.60;;;16.30;;
3943;SDS011;1986;52.546;13.428;2023-04-24T05:50:39;16.03;;;15.33;;
3943;SDS011;1986;52.546;13.428;2023-04-24T05:53:06;17.23;;;16.33;;
3943;SDS011;1986;52.546;13.428;2023-04-24T05:55:33;16.67;;;15.73;;
3943;SDS011;1986;52.546;13.428;2023-04-24T05:58:04;17.53;;;16.43;;
3943;SDS011;1986;52.546;13.428;2023-04-24T06:00:32;16.63;;;15.83;;
3943;SDS011;1986;52.546;13.428;2023-04-24T06:02:59;16.00;;;15.40;;
3943;SDS011;1986;52.546;13.428;2023-04-24T06:05:28;15.90;;;15.30;;
3943;SDS011;1986;52.546;13.428;2023-04-24T06:07:57;18.50;;;17.60;;
3943;SDS011;1986;52.546;13.428;2023-04-24T06:10:24;17.17;;;16.30;;
3943;SDS011;1986;52.546;13.428;2023-04-24T06:12:52;17.23;;;16.53;;
3943;SDS011;1986;52.546;13.428;2023-04-24T06:15:22;18.20;;;16.87;;
3943;SDS011;1986;52.546;13.428;2023-04-24T06:17:49;16.13;;;15.50;;
3943;SDS011;1986;52.546;13.428;2023-04-24T06:20:16;16.60;;;15.90;;
3943;SDS011;1986;52.546;13.428;2023-04-24T06:22:43;17.50;;;16.70;;
3943;SDS011;1986;52.546;13.428;2023-04-24T06:25:10;16.60;;;15.90;;
3943;SDS011;1986;52.546;13.428;2023-04-24T06:27:39;16.97;;;16.27;;
3943;SDS011;1986;52.546;13.428;2023-04-24T06:30:07;20.73;;;18.70;;
3943;SDS011;1986;52.546;13.428;2023-04-24T06:32:36;17.90;;;17.00;;
3943;SDS011;1986;52.546;13.428;2023-04-24T06:35:03;18.20;;;17.30;;
3943;SDS011;1986;52.546;13.428;2023-04-24T06:37:32;18.00;;;17.20;;
3943;SDS011;1986;52.546;13.428;2023-04-24T06:39:59;17.53;;;16.27;;
3943;SDS011;1986;52.546;13.428;2023-04-24T06:42:27;16.80;;;16.10;;
3943;SDS011;1986;52.546;13.428;2023-04-24T06:44:54;18.40;;;17.57;;
3943;SDS011;1986;52.546;13.428;2023-04-24T06:47:21;17.73;;;16.93;;
3943;SDS011;1986;52.546;13.428;2023-04-24T06:49:51;17.20;;;16.50;;
3943;SDS011;1986;52.546;13.428;2023-04-24T06:52:18;18.67;;;17.77;;
3943;SDS011;1986;52.546;13.428;2023-04-24T06:54:45;19.23;;;17.97;;
3943;SDS011;1986;52.546;13.428;2023-04-24T06:57:12;18.73;;;17.83;;
3943;SDS011;1986;52.546;13.428;2023-04-24T06:59:41;18.87;;;18.00;;
3943;SDS011;1986;52.546;13.428;2023-04-24T07:02:08;18.20;;;17.40;;
3943;SDS011;1986;52.546;13.428;2023-04-24T07:04:35;18.40;;;17.50;;
3943;SDS011;1986;52.546;13.428;2023-04-24T07:07:04;18.57;;;17.67;;
3943;SDS011;1986;52.546;13.428;2023-04-24T07:09:31;18.20;;;17.40;;
3943;SDS011;1986;52.546;13.428;2023-04-24T07:12:00;18.40;;;17.60;;
3943;SDS011;1986;52.546;13.428;2023-04-24T07:14:29;18.73;;;17.90;;
3943;SDS011;1986;52.546;13.428;2023-04-24T07:16:56;18.20;;;17.40;;
3943;SDS011;1986;52.546;13.428;2023-04-24T07:19:23;18.93;;;18.03;;
3943;SDS011;1986;52.546;13.428;2023-04-24T07:21:50;19.60;;;18.60;;
3943;SDS011;1986;52.546;13.428;2023-04-24T07:24:20;19.70;;;18.73;;
3943;SDS011;1986;52.546;13.428;2023-04-24T07:26:47;18.43;;;17.60;;
3943;SDS011;1986;52.546;13.428;2023-04-24T07:29:14;19.77;;;18.67;;
3943;SDS011;1986;52.546;13.428;2023-04-24T07:31:41;20.30;;;18.00;;
3943;SDS011;1986;52.546;13.428;2023-04-24T07:34:08;20.20;;;18.93;;
3943;SDS011;1986;52.546;13.428;2023-04-24T07:36:38;20.13;;;19.03;;
3943;SDS011;1986;52.546;13.428;2023-04-24T07:39:06;18.40;;;17.50;;
3943;SDS011;1986;52.546;13.428;2023-04-24T07:41:35;19.53;;;18.53;;
3943;SDS011;1986;52.546;13.428;2023-04-24T07:44:02;19.50;;;18.50;;
3943;SDS011;1986;52.546;13.428;2023-04-24T07:46:29;19.53;;;18.53;;
3943;SDS011;1986;52.546;13.428;2023-04-24T07:48:56;19.60;;;18.60;;
3943;SDS011;1986;52.546;13.428;2023-04-24T07:51:24;19.80;;;18.70;;
3943;SDS011;1986;52.546;13.428;2023-04-24T07:53:52;19.73;;;18.63;;
3943;SDS011;1986;52.546;13.428;2023-04-24T07:56:19;20.03;;;18.83;;
3943;SDS011;1986;52.546;13.428;2023-04-24T07:58:48;20.27;;;19.17;;
3943;SDS011;1986;52.546;13.428;2023-04-24T08:01:15;19.90;;;18.80;;
3943;SDS011;1986;52.546;13.428;2023-04-24T08:03:42;20.10;;;19.00;;
3943;SDS011;1986;52.546;13.428;2023-04-24T08:06:09;20.03;;;18.93;;
3943;SDS011;1986;52.546;13.428;2023-04-24T08:08:36;20.23;;;19.13;;
3943;SDS011;1986;52.546;13.428;2023-04-24T08:11:03;20.70;;;19.50;;
3943;SDS011;1986;52.546;13.428;2023-04-24T08:13:30;21.90;;;20.60;;
3943;SDS011;1986;52.546;13.428;2023-04-24T08:15:58;22.00;;;20.70;;
3943;SDS011;1986;52.546;13.428;2023-04-24T08:18:25;21.13;;;19.93;;
3943;SDS011;1986;52.546;13.428;2023-04-24T08:20:52;21.20;;;19.90;;
3943;SDS011;1986;52.546;13.428;2023-04-24T08:23:20;21.77;;;20.37;;
3943;SDS011;1986;52.546;13.428;2023-04-24T08:25:47;21.20;;;20.00;;
3943;SDS011;1986;52.546;13.428;2023-04-24T08:28:14;21.23;;;20.00;;
3943;SDS011;1986;52.546;13.428;2023-04-24T08:30:45;21.20;;;19.90;;
3943;SDS011;1986;52.546;13.428;2023-04-24T08:33:13;21.00;;;19.80;;
3943;SDS011;1986;52.546;13.428;2023-04-24T08:35:40;23.30;;;22.00;;
3943;SDS011;1986;52.546;13.428;2023-04-24T08:38:07;24.30;;;22.90;;
3943;SDS011;1986;52.546;13.428;2023-04-24T08:40:34;24.10;;;22.70;;
3943;SDS011;1986;52.546;13.428;2023-04-24T08:43:03;25.20;;;23.70;;
3943;SDS011;1986;52.546;13.428;2023-04-24T08:45:30;23.50;;;22.20;;
3943;SDS011;1986;52.546;13.428;2023-04-24T08:47:59;24.47;;;23.07;;
3943;SDS011;1986;52.546;13.428;2023-04-24T08:50:28;22.23;;;20.93;;
3943;SDS011;1986;52.546;13.428;2023-04-24T08:52:55;22.10;;;20.90;;
3943;SDS011;1986;52.546;13.428;2023-04-24T08:55:27;22.33;;;21.03;;
3943;SDS011;1986;52.546;13.428;2023-04-24T08:57:56;22.10;;;20.80;;
3943;SDS011;1986;52.546;13.428;2023-04-24T09:00:25;24.10;;;22.70;;
3943;SDS011;1986;52.546;13.428;2023-04-24T09:02:53;22.10;;;20.80;;
3943;SDS011;1986;52.546;13.428;2023-04-24T09:05:22;21.60;;;20.40;;
3943;SDS011;1986;52.546;13.428;2023-04-24T09:07:54;21.80;;;20.50;;
3943;SDS011;1986;52.546;13.428;2023-04-24T09:10:23;22.80;;;21.30;;
3943;SDS011;1986;52.546;13.428;2023-04-24T09:12:51;23.20;;;21.80;;
3943;SDS011;1986;52.546;13.428;2023-04-24T09:15:18;24.73;;;23.23;;
3943;SDS011;1986;52.546;13.428;2023-04-24T09:17:46;23.10;;;21.80;;
3943;SDS011;1986;52.546;13.428;2023-04-24T09:20:15;24.27;;;22.87;;
3943;SDS011;1986;52.546;13.428;2023-04-24T09:22:42;27.00;;;25.40;;
3943;SDS011;1986;52.546;13.428;2023-04-24T09:25:12;26.70;;;25.20;;
3943;SDS011;1986;52.546;13.428;2023-04-24T09:27:42;26.80;;;25.20;;
3943;SDS011;1986;52.546;13.428;2023-04-24T09:30:11;23.57;;;22.17;;
3943;SDS011;1986;52.546;13.428;2023-04-24T09:32:39;22.50;;;21.10;;
3943;SDS011;1986;52.546;13.428;2023-04-24T09:35:09;21.80;;;20.50;;
3943;SDS011;1986;52.546;13.428;2023-04-24T09:37:38;21.80;;;20.50;;
3943;SDS011;1986;52.546;13.428;2023-04-24T09:40:13;21.63;;;20.37;;
3943;SDS011;1986;52.546;13.428;2023-04-24T09:42:46;22.20;;;20.90;;
3943;SDS011;1986;52.546;13.428;2023-04-24T09:45:18;21.57;;;20.37;;
3943;SDS011;1986;52.546;13.428;2023-04-24T09:47:45;23.37;;;22.03;;
3943;SDS011;1986;52.546;13.428;2023-04-24T09:50:17;22.43;;;21.20;;
3943;SDS011;1986;52.546;13.428;2023-04-24T09:52:45;22.30;;;20.50;;
3943;SDS011;1986;52.546;13.428;2023-04-24T09:55:23;21.30;;;20.10;;
3943;SDS011;1986;52.546;13.428;2023-04-24T09:57:50;21.77;;;20.50;;
3943;SDS011;1986;52.546;13.428;2023-04-24T10:00:22;21.93;;;20.53;;
3943;SDS011;1986;52.546;13.428;2023-04-24T10:02:57;22.30;;;20.90;;
3943;SDS011;1986;52.546;13.428;2023-04-24T10:05:24;21.80;;;20.50;;
3943;SDS011;1986;52.546;13.428;2023-04-24T10:07:57;23.50;;;22.10;;
3943;SDS011;1986;52.546;13.428;2023-04-24T10:10:30;23.10;;;21.70;;
3943;SDS011;1986;52.546;13.428;2023-04-24T10:12:57;23.00;;;21.70;;
3943;SDS011;1986;52.546;13.428;2023-04-24T10:15:25;22.03;;;20.73;;
3943;SDS011;1986;52.546;13.428;2023-04-24T10:17:55;22.30;;;20.60;;
3943;SDS011;1986;52.546;13.428;2023-04-24T10:20:27;22.57;;;21.13;;
3943;SDS011;1986;52.546;13.428;2023-04-24T10:22:55;22.40;;;21.00;;
3943;SDS011;1986;52.546;13.428;2023-04-24T10:25:23;22.97;;;21.50;;
3943;SDS011;1986;52.546;13.428;2023-04-24T10:27:53;23.80;;;22.30;;
3943;SDS011;1986;52.546;13.428;2023-04-24T10:30:22;23.90;;;22.40;;
3943;SDS011;1986;52.546;13.428;2023-04-24T10:32:50;23.80;;;22.30;;
3943;SDS011;1986;52.546;13.428;2023-04-24T10:35:21;21.90;;;20.50;;
3943;SDS011;1986;52.546;13.428;2023-04-24T10:37:53;22.97;;;21.47;;
3943;SDS011;1986;52.546;13.428;2023-04-24T10:40:25;23.10;;;21.60;;
3943;SDS011;1986;52.546;13.428;2023-04-24T10:42:54;23.40;;;21.80;;
3943;SDS011;1986;52.546;13.428;2023-04-24T10:45:23;23.00;;;21.50;;
3943;SDS011;1986;52.546;13.428;2023-04-24T10:47:56;22.90;;;21.50;;
3943;SDS011;1986;52.546;13.428;2023-04-24T10:50:26;22.20;;;20.90;;
3943;SDS011;1986;52.546;13.428;2023-04-24T10:53:05;23.70;;;22.10;;
3943;SDS011;1986;52.546;13.428;2023-04-24T10:55:40;24.70;;;23.30;;
3943;SDS011;1986;52.546;13.428;2023-04-24T10:58:13;22.73;;;21.10;;
3943;SDS011;1986;52.546;13.428;2023-04-24T11:00:43;24.50;;;22.80;;
3943;SDS011;1986;52.546;13.428;2023-04-24T11:03:24;21.90;;;20.60;;
3943;SDS011;1986;52.546;13.428;2023-04-24T11:05:58;22.20;;;20.80;;
3943;SDS011;1986;52.546;13.428;2023-04-24T11:08:29;22.40;;;20.90;;
3943;SDS011;1986;52.546;13.428;2023-04-24T11:11:04;22.63;;;21.13;;
3943;SDS011;1986;52.546;13.428;2023-04-24T11:16:34;23.23;;;21.63;;
3943;SDS011;1986;52.546;13.428;2023-04-24T11:19:06;22.10;;;20.70;;
3943;SDS011;1986;52.546;13.428;2023-04-24T11:21:40;23.93;;;22.00;;
3943;SDS011;1986;52.546;13.428;2023-04-24T11:27:07;22.90;;;21.40;;
3943;SDS011;1986;52.546;13.428;2023-04-24T11:29:45;23.20;;;21.70;;
3943;SDS011;1986;52.546;13.428;2023-04-24T11:32:17;23.30;;;21.70;;
3943;SDS011;1986;52.546;13.428;2023-04-24T11:34:46;22.90;;;21.40;;
3943;SDS011;1986;52.546;13.428;2023-04-24T11:37:14;22.97;;;21.47;;
3943;SDS011;1986;52.546;13.428;2023-04-24T11:39:41;23.07;;;21.67;;
3943;SDS011;1986;52.546;13.428;2023-04-24T11:42:08;22.33;;;20.93;;
3943;SDS011;1986;52.546;13.428;2023-04-24T11:44:35;24.07;;;22.40;;
3943;SDS011;1986;52.546;13.428;2023-04-24T11:47:04;23.00;;;21.43;;
3943;SDS011;1986;52.546;13.428;2023-04-24T11:49:32;43.47;;;21.70;;
3943;SDS011;1986;52.546;13.428;2023-04-24T11:51:59;21.37;;;20.13;;
3943;SDS011;1986;52.546;13.428;2023-04-24T11:54:26;31.17;;;20.97;;
3943;SDS011;1986;52.546;13.428;2023-04-24T11:56:53;21.50;;;20.30;;
3943;SDS011;1986;52.546;13.428;2023-04-24T11:59:21;22.23;;;20.83;;
3943;SDS011;1986;52.546;13.428;2023-04-24T12:01:48;20.80;;;19.70;;
3943;SDS011;1986;52.546;13.428;2023-04-24T12:04:17;21.00;;;19.80;;
3943;SDS011;1986;52.546;13.428;2023-04-24T12:07:00;21.10;;;19.80;;
3943;SDS011;1986;52.546;13.428;2023-04-24T12:09:27;20.77;;;19.57;;
3943;SDS011;1986;52.546;13.428;2023-04-24T12:11:54;21.10;;;19.90;;
3943;SDS011;1986;52.546;13.428;2023-04-24T12:14:23;21.00;;;19.80;;
3943;SDS011;1986;52.546;13.428;2023-04-24T12:16:50;21.40;;;20.00;;
3943;SDS011;1986;52.546;13.428;2023-04-24T12:19:22;21.20;;;19.90;;
3943;SDS011;1986;52.546;13.428;2023-04-24T12:21:59;21.33;;;20.03;;
3943;SDS011;1986;52.546;13.428;2023-04-24T12:24:27;20.47;;;19.30;;
3943;SDS011;1986;52.546;13.428;2023-04-24T12:26:54;22.30;;;20.80;;
3943;SDS011;1986;52.546;13.428;2023-04-24T12:29:21;20.93;;;19.67;;
3943;SDS011;1986;52.546;13.428;2023-04-24T12:31:50;22.03;;;20.67;;
3943;SDS011;1986;52.546;13.428;2023-04-24T12:34:18;20.90;;;19.70;;
3943;SDS011;1986;52.546;13.428;2023-04-24T12:36:47;20.80;;;19.60;;
3943;SDS011;1986;52.546;13.428;2023-04-24T12:39:14;21.47;;;20.17;;
3943;SDS011;1986;52.546;13.428;2023-04-24T12:41:50;20.90;;;19.70;;
3943;SDS011;1986;52.546;13.428;2023-04-24T12:44:28;22.17;;;20.80;;
3943;SDS011;1986;52.546;13.428;2023-04-24T12:46:55;24.13;;;22.53;;
3943;SDS011;1986;52.546;13.428;2023-04-24T12:49:22;25.20;;;23.43;;
3943;SDS011;1986;52.546;13.428;2023-04-24T12:51:50;26.90;;;25.10;;
3943;SDS011;1986;52.546;13.428;2023-04-24T12:54:18;28.70;;;26.27;;
3943;SDS011;1986;52.546;13.428;2023-04-24T12:56:45;27.50;;;25.60;;
3943;SDS011;1986;52.546;13.428;2023-04-24T12:59:11;28.33;;;26.37;;
3943;SDS011;1986;52.546;13.428;2023-04-24T13:01:38;28.90;;;26.90;;
3943;SDS011;1986;52.546;13.428;2023-04-24T13:04:05;28.53;;;26.63;;
3943;SDS011;1986;52.546;13.428;2023-04-24T13:06:33;30.80;;;28.60;;
3943;SDS011;1986;52.546;13.428;2023-04-24T13:09:01;29.90;;;27.80;;
3943;SDS011;1986;52.546;13.428;2023-04-24T13:11:29;27.93;;;26.03;;
3943;SDS011;1986;52.546;13.428;2023-04-24T13:13:56;27.90;;;26.00;;
3943;SDS011;1986;52.546;13.428;2023-04-24T13:16:23;29.10;;;27.03;;
3943;SDS011;1986;52.546;13.428;2023-04-24T13:18:50;27.97;;;26.07;;
3943;SDS011;1986;52.546;13.428;2023-04-24T13:21:17;27.20;;;25.30;;
3943;SDS011;1986;52.546;13.428;2023-04-24T13:23:44;28.00;;;25.70;;
3943;SDS011;1986;52.546;13.428;2023-04-24T13:26:12;27.57;;;25.57;;
3943;SDS011;1986;52.546;13.428;2023-04-24T13:28:39;27.37;;;25.37;;
3943;SDS011;1986;52.546;13.428;2023-04-24T13:31:06;28.60;;;26.60;;
3943;SDS011;1986;52.546;13.428;2023-04-24T13:33:33;32.13;;;29.83;;
3943;SDS011;1986;52.546;13.428;2023-04-24T13:35:59;32.00;;;29.80;;
3943;SDS011;1986;52.546;13.428;2023-04-24T13:38:27;32.10;;;29.70;;
3943;SDS011;1986;52.546;13.428;2023-04-24T13:40:54;30.27;;;28.17;;
3943;SDS011;1986;52.546;13.428;2023-04-24T13:43:22;28.37;;;26.47;;
3943;SDS011;1986;52.546;13.428;2023-04-24T13:45:50;28.40;;;26.40;;
3943;SDS011;1986;52.546;13.428;2023-04-24T13:48:17;30.67;;;27.90;;
3943;SDS011;1986;52.546;13.428;2023-04-24T13:50:44;29.33;;;27.23;;
3943;SDS011;1986;52.546;13.428;2023-04-24T13:53:13;31.33;;;29.13;;
3943;SDS011;1986;52.546;13.428;2023-04-24T13:55:40;33.37;;;30.97;;
3943;SDS011;1986;52.546;13.428;2023-04-24T13:58:07;31.63;;;29.43;;
3943;SDS011;1986;52.546;13.428;2023-04-24T14:00:35;32.70;;;30.40;;
3943;SDS011;1986;52.546;13.428;2023-04-24T14:03:02;33.27;;;30.93;;
3943;SDS011;1986;52.546;13.428;2023-04-24T14:05:29;31.00;;;28.90;;
3943;SDS011;1986;52.546;13.428;2023-04-24T14:07:56;32.60;;;30.33;;
3943;SDS011;1986;52.546;13.428;2023-04-24T14:10:23;32.80;;;30.50;;
3943;SDS011;1986;52.546;13.428;2023-04-24T14:12:52;31.80;;;29.40;;
3943;SDS011;1986;52.546;13.428;2023-04-24T14:15:19;32.47;;;29.93;;
3943;SDS011;1986;52.546;13.428;2023-04-24T14:17:47;32.20;;;30.00;;
3943;SDS011;1986;52.546;13.428;2023-04-24T14:20:14;31.60;;;29.30;;
3943;SDS011;1986;52.546;13.428;2023-04-24T14:22:41;32.17;;;29.97;;
3943;SDS011;1986;52.546;13.428;2023-04-24T14:25:08;30.30;;;28.10;;
3943;SDS011;1986;52.546;13.428;2023-04-24T14:27:35;32.10;;;29.90;;
3943;SDS011;1986;52.546;13.428;2023-04-24T14:30:03;30.80;;;28.70;;
3943;SDS011;1986;52.546;13.428;2023-04-24T14:32:30;30.00;;;28.00;;
3943;SDS011;1986;52.546;13.428;2023-04-24T14:35:00;30.60;;;28.53;;
3943;SDS011;1986;52.546;13.428;2023-04-24T14:37:27;29.97;;;27.70;;
3943;SDS011;1986;52.546;13.428;2023-04-24T14:39:54;29.93;;;27.93;;
3943;SDS011;1986;52.546;13.428;2023-04-24T14:42:21;30.80;;;28.70;;
3943;SDS011;1986;52.546;13.428;2023-04-24T14:44:48;30.30;;;28.20;;
3943;SDS011;1986;52.546;13.428;2023-04-24T14:47:15;32.23;;;30.03;;
3943;SDS011;1986;52.546;13.428;2023-04-24T14:49:42;32.37;;;30.27;;